Time;durP1;ratioP1;P1;durP2;ratioP2;P2;SDS_P1;SDS_P2;PMS_P1;PMS_P2;Temp;Humidity;BMP_temperature;BMP_pressure;BME280_temperature;BME280_humidity;BME280_pressure;Samples;Min_cycle;Max_cycle;Signal;HPM_P1;HPM_P2
2021/07/16 00:01:12;;;;;;;3.25;1.35;;;;;;;;;;6227944;23;20256;-89
2021/07/16 00:04:17;;;;;;;3.13;1.52;;;;;;;;;;6229386;23;20163;-89
2021/07/16 00:07:23;;;;;;;4.95;1.60;;;;;;;;;;6228692;23;20215;-90
2021/07/16 00:10:28;;;;;;;7.78;1.58;;;;;;;;;;6230407;23;20171;-88
2021/07/16 00:13:34;;;;;;;9.77;1.70;;;;;;;;;;6229297;23;20232;-90
2021/07/16 00:16:40;;;;;;;1.83;1.25;;;;;;;;;;6229509;23;20174;-89
2021/07/16 00:19:45;;;;;;;4.13;1.38;;;;;;;;;;6227671;22;20269;-87
2021/07/16 00:22:50;;;;;;;1.55;1.02;;;;;;;;;;6228636;23;20167;-90
2021/07/16 00:25:54;;;;;;;2.85;1.38;;;;;;;;;;6229873;23;20170;-88
2021/07/16 00:29:01;;;;;;;2.22;1.10;;;;;;;;;;6229887;23;20167;-90
2021/07/16 00:32:07;;;;;;;6.65;1.63;;;;;;;;;;6229180;22;20171;-88
2021/07/16 00:35:12;;;;;;;3.70;1.60;;;;;;;;;;6228673;23;20175;-87
2021/07/16 00:38:17;;;;;;;2.85;1.48;;;;;;;;;;6228645;23;20190;-90
2021/07/16 00:41:22;;;;;;;2.25;1.33;;;;;;;;;;6227920;23;20198;-90
2021/07/16 00:44:29;;;;;;;2.60;1.40;;;;;;;;;;6229349;23;20175;-89
2021/07/16 00:47:34;;;;;;;5.20;1.20;;;;;;;;;;6228497;23;20166;-90
2021/07/16 00:50:41;;;;;;;3.15;1.50;;;;;;;;;;6227626;23;20167;-89
2021/07/16 00:53:46;;;;;;;5.38;1.77;;;;;;;;;;6227937;23;20230;-89
2021/07/16 00:56:52;;;;;;;3.08;1.50;;;;;;;;;;6228210;23;20214;-89
2021/07/16 00:59:59;;;;;;;1.75;1.30;;;;;;;;;;6228729;23;20191;-88
2021/07/16 01:03:04;;;;;;;3.55;1.10;;;;;;;;;;6229088;23;20579;-90
2021/07/16 01:06:10;;;;;;;5.22;1.23;;;;;;;;;;6228716;22;20166;-91
2021/07/16 01:09:16;;;;;;;2.17;1.45;;;;;;;;;;6246328;23;20179;-88
2021/07/16 01:12:23;;;;;;;3.03;1.40;;;;;;;;;;6229012;23;20214;-87
2021/07/16 01:15:32;;;;;;;4.70;1.40;;;;;;;;;;6227102;23;20495;-90
2021/07/16 01:18:37;;;;;;;7.93;1.77;;;;;;;;;;6226767;23;20186;-90
2021/07/16 01:21:42;;;;;;;5.97;1.58;;;;;;;;;;6229420;22;20625;-88
2021/07/16 01:24:49;;;;;;;5.82;1.63;;;;;;;;;;6227501;23;20215;-89
2021/07/16 01:27:57;;;;;;;3.78;1.40;;;;;;;;;;6228332;23;20171;-89
2021/07/16 01:31:03;;;;;;;6.60;1.63;;;;;;;;;;6246952;22;20179;-89
2021/07/16 01:34:08;;;;;;;3.25;1.23;;;;;;;;;;6245519;22;20614;-89
2021/07/16 01:37:14;;;;;;;5.75;1.65;;;;;;;;;;6228148;22;20190;-88
2021/07/16 01:40:22;;;;;;;4.43;1.35;;;;;;;;;;6245431;23;20190;-89
2021/07/16 01:43:28;;;;;;;3.78;1.23;;;;;;;;;;6228924;23;20159;-88
2021/07/16 01:46:33;;;;;;;3.47;1.40;;;;;;;;;;6227229;22;20638;-90
2021/07/16 01:49:38;;;;;;;2.63;1.45;;;;;;;;;;6229145;23;20183;-90
2021/07/16 01:52:44;;;;;;;2.53;1.65;;;;;;;;;;6229249;23;20187;-89
2021/07/16 01:55:53;;;;;;;2.38;1.17;;;;;;;;;;6228472;23;20171;-89
2021/07/16 01:58:58;;;;;;;3.15;1.50;;;;;;;;;;6228409;23;20163;-89
2021/07/16 02:02:03;;;;;;;7.18;1.80;;;;;;;;;;6229446;23;20261;-89
2021/07/16 02:05:09;;;;;;;3.95;1.30;;;;;;;;;;6229141;22;20210;-89
2021/07/16 02:08:16;;;;;;;2.63;1.33;;;;;;;;;;6230866;22;20163;-90
2021/07/16 02:11:24;;;;;;;8.82;1.80;;;;;;;;;;6229755;23;20267;-90
2021/07/16 02:14:30;;;;;;;5.22;1.65;;;;;;;;;;6230094;23;20175;-91
2021/07/16 02:17:35;;;;;;;4.43;2.60;;;;;;;;;;6228872;22;20203;-89
2021/07/16 02:20:42;;;;;;;3.95;2.15;;;;;;;;;;6229352;23;20203;-90
2021/07/16 02:23:47;;;;;;;8.73;1.50;;;;;;;;;;6228622;22;20163;-90
2021/07/16 02:26:54;;;;;;;4.43;1.70;;;;;;;;;;6246744;23;20174;-91
2021/07/16 02:29:59;;;;;;;3.22;1.42;;;;;;;;;;6227304;23;20175;-88
2021/07/16 02:33:05;;;;;;;4.47;1.65;;;;;;;;;;6230398;23;20218;-90
2021/07/16 02:36:10;;;;;;;6.25;1.67;;;;;;;;;;6229115;23;20167;-89
2021/07/16 02:39:15;;;;;;;8.98;1.77;;;;;;;;;;6183318;23;20256;-90
2021/07/16 02:42:26;;;;;;;5.60;1.90;;;;;;;;;;6182860;23;20175;-90
2021/07/16 02:45:32;;;;;;;8.32;2.90;;;;;;;;;;6181907;23;20284;-90
2021/07/16 02:48:38;;;;;;;7.75;2.60;;;;;;;;;;6182670;23;20197;-90
2021/07/16 02:51:43;;;;;;;6.75;2.47;;;;;;;;;;6182089;23;20171;-89
2021/07/16 02:54:48;;;;;;;6.32;3.30;;;;;;;;;;6181342;23;20274;-88
2021/07/16 02:57:55;;;;;;;7.82;2.40;;;;;;;;;;6200451;23;20172;-89
2021/07/16 03:01:00;;;;;;;6.50;2.90;;;;;;;;;;6180343;23;20282;-90
2021/07/16 03:04:06;;;;;;;7.78;3.63;;;;;;;;;;6181692;23;20156;-90
2021/07/16 03:07:11;;;;;;;9.25;4.00;;;;;;;;;;6181238;23;20172;-90
2021/07/16 03:10:17;;;;;;;13.43;5.43;;;;;;;;;;6181535;23;20176;-91
2021/07/16 03:13:24;;;;;;;14.35;5.68;;;;;;;;;;6180047;23;20168;-89
2021/07/16 03:16:29;;;;;;;16.23;5.55;;;;;;;;;;6181668;23;20183;-90
2021/07/16 03:19:34;;;;;;;14.43;5.90;;;;;;;;;;6180451;23;20708;-90
2021/07/16 03:22:40;;;;;;;16.50;6.07;;;;;;;;;;6181203;23;20168;-89
2021/07/16 03:25:45;;;;;;;12.00;5.32;;;;;;;;;;6183139;23;20170;-91
2021/07/16 03:28:51;;;;;;;20.02;6.30;;;;;;;;;;6183973;23;20622;-89
2021/07/16 03:31:56;;;;;;;20.42;6.32;;;;;;;;;;6182580;23;20544;-89
2021/07/16 03:35:02;;;;;;;16.73;6.50;;;;;;;;;;6181400;23;20247;-89
2021/07/16 03:38:07;;;;;;;11.80;5.32;;;;;;;;;;6213150;23;20234;-88
2021/07/16 03:41:14;;;;;;;15.48;5.75;;;;;;;;;;6229955;23;20199;-89
2021/07/16 03:44:21;;;;;;;15.45;5.88;;;;;;;;;;6230677;23;20615;-89
2021/07/16 03:47:26;;;;;;;11.73;5.80;;;;;;;;;;6231453;23;20346;-89
2021/07/16 03:50:31;;;;;;;11.18;5.90;;;;;;;;;;6229274;23;20168;-89
2021/07/16 03:53:36;;;;;;;9.88;5.65;;;;;;;;;;6231281;23;20164;-89
2021/07/16 03:56:42;;;;;;;14.95;6.72;;;;;;;;;;6230857;23;20228;-90
2021/07/16 03:59:49;;;;;;;12.82;6.82;;;;;;;;;;6230739;22;20179;-90
2021/07/16 04:02:54;;;;;;;13.35;6.63;;;;;;;;;;6230274;22;20174;-90
2021/07/16 04:06:33;;;;;;;11.95;6.38;;;;;;;;;;6230331;23;20175;-89
2021/07/16 04:09:43;;;;;;;13.07;7.55;;;;;;;;;;6231842;22;20194;-89
2021/07/16 04:12:52;;;;;;;11.77;6.53;;;;;;;;;;6230991;23;20155;-89
2021/07/16 04:15:59;;;;;;;11.95;6.97;;;;;;;;;;6231027;23;20244;-89
2021/07/16 04:19:04;;;;;;;12.02;7.60;;;;;;;;;;6230198;23;20175;-89
2021/07/16 04:22:09;;;;;;;14.48;6.90;;;;;;;;;;6232073;23;20199;-89
2021/07/16 04:25:17;;;;;;;11.55;6.65;;;;;;;;;;6230885;23;20175;-89
2021/07/16 04:28:22;;;;;;;12.30;7.22;;;;;;;;;;6230733;23;20159;-89
2021/07/16 04:31:29;;;;;;;11.93;7.03;;;;;;;;;;6229811;23;20484;-90
2021/07/16 04:34:36;;;;;;;15.15;7.50;;;;;;;;;;6231503;23;20190;-91
2021/07/16 04:37:41;;;;;;;11.30;6.45;;;;;;;;;;6229586;23;20194;-89
2021/07/16 04:40:47;;;;;;;12.68;7.18;;;;;;;;;;6229355;22;20195;-88
2021/07/16 04:43:52;;;;;;;13.23;7.90;;;;;;;;;;6227276;23;20167;-89
2021/07/16 04:46:58;;;;;;;15.32;7.25;;;;;;;;;;6228218;23;20179;-90
2021/07/16 04:50:04;;;;;;;15.68;8.52;;;;;;;;;;6227517;23;20210;-89
2021/07/16 04:53:09;;;;;;;14.57;7.70;;;;;;;;;;6227942;23;20167;-90
2021/07/16 04:56:14;;;;;;;13.77;7.95;;;;;;;;;;6228311;23;20179;-89
2021/07/16 04:59:19;;;;;;;14.25;8.10;;;;;;;;;;6227957;23;20171;-89
2021/07/16 05:02:26;;;;;;;16.90;8.82;;;;;;;;;;6228305;23;20194;-89
2021/07/16 05:05:32;;;;;;;19.42;9.00;;;;;;;;;;6230792;23;20171;-88
2021/07/16 05:08:36;;;;;;;17.27;8.73;;;;;;;;;;6228134;23;20175;-89
2021/07/16 05:11:41;;;;;;;14.40;7.43;;;;;;;;;;6230670;22;20159;-90
2021/07/16 05:14:46;;;;;;;14.20;8.50;;;;;;;;;;6232229;22;20167;-90
2021/07/16 05:17:53;;;;;;;14.45;7.40;;;;;;;;;;6232330;22;20174;-91
2021/07/16 05:20:58;;;;;;;17.70;7.65;;;;;;;;;;6232339;23;20190;-88
2021/07/16 05:24:04;;;;;;;13.88;7.55;;;;;;;;;;6229711;23;20509;-89
2021/07/16 05:27:10;;;;;;;11.02;7.20;;;;;;;;;;6224946;23;20282;-88
2021/07/16 05:30:16;;;;;;;14.25;7.88;;;;;;;;;;6229669;23;20214;-89
2021/07/16 05:33:24;;;;;;;12.30;7.07;;;;;;;;;;6230497;23;20163;-89
2021/07/16 05:36:30;;;;;;;14.02;7.68;;;;;;;;;;6230558;23;20441;-90
2021/07/16 05:39:36;;;;;;;13.23;7.47;;;;;;;;;;6231013;22;20155;-89
2021/07/16 05:42:42;;;;;;;13.25;7.63;;;;;;;;;;6233833;22;20222;-89
2021/07/16 05:45:48;;;;;;;13.52;7.28;;;;;;;;;;6233165;22;20234;-90
2021/07/16 05:48:55;;;;;;;11.55;7.25;;;;;;;;;;6231695;22;20163;-91
2021/07/16 05:52:00;;;;;;;12.65;6.93;;;;;;;;;;6228326;23;20214;-89
2021/07/16 05:55:06;;;;;;;8.70;6.30;;;;;;;;;;6230727;23;20155;-90
2021/07/16 05:58:11;;;;;;;9.57;6.47;;;;;;;;;;6229786;23;20214;-90
2021/07/16 06:01:18;;;;;;;10.35;6.68;;;;;;;;;;6230086;22;20211;-89
2021/07/16 06:04:25;;;;;;;13.73;6.85;;;;;;;;;;6230805;23;20274;-90
2021/07/16 06:07:30;;;;;;;11.45;6.78;;;;;;;;;;6232765;22;20171;-88
2021/07/16 06:10:36;;;;;;;10.60;6.63;;;;;;;;;;6231767;23;20174;-88
2021/07/16 06:13:41;;;;;;;10.85;6.93;;;;;;;;;;6213611;22;20231;-90
2021/07/16 06:16:49;;;;;;;13.02;7.07;;;;;;;;;;6229321;23;20227;-88
2021/07/16 06:19:57;;;;;;;9.95;6.43;;;;;;;;;;6228618;22;20171;-90
2021/07/16 06:23:03;;;;;;;9.15;6.22;;;;;;;;;;6247959;23;20211;-90
2021/07/16 06:26:07;;;;;;;9.90;6.45;;;;;;;;;;6231083;23;20511;-90
2021/07/16 06:29:12;;;;;;;9.13;5.53;;;;;;;;;;6229677;23;20166;-90
2021/07/16 06:32:18;;;;;;;8.05;5.50;;;;;;;;;;6229349;23;20166;-89
2021/07/16 06:35:25;;;;;;;9.38;5.82;;;;;;;;;;6232351;23;20155;-90
2021/07/16 06:38:30;;;;;;;9.23;6.25;;;;;;;;;;6232468;23;20223;-90
2021/07/16 06:41:35;;;;;;;8.23;5.35;;;;;;;;;;6231757;22;20195;-90
2021/07/16 06:44:40;;;;;;;10.73;5.70;;;;;;;;;;6231883;22;20167;-91
2021/07/16 06:47:45;;;;;;;8.68;5.40;;;;;;;;;;6230789;23;20174;-88
2021/07/16 06:50:52;;;;;;;10.13;5.75;;;;;;;;;;6230687;23;20163;-89
2021/07/16 06:53:57;;;;;;;7.82;5.15;;;;;;;;;;6230701;23;20163;-88
2021/07/16 06:57:03;;;;;;;12.85;5.32;;;;;;;;;;6246781;23;20194;-91
2021/07/16 07:00:09;;;;;;;7.45;5.20;;;;;;;;;;6232477;22;20159;-88
2021/07/16 07:03:15;;;;;;;9.13;5.15;;;;;;;;;;6232766;23;20206;-88
2021/07/16 07:06:24;;;;;;;7.70;5.30;;;;;;;;;;6231659;23;20175;-89
2021/07/16 07:09:29;;;;;;;7.07;5.20;;;;;;;;;;6231646;23;20599;-89
2021/07/16 07:12:38;;;;;;;8.15;5.05;;;;;;;;;;6232085;22;20167;-90
2021/07/16 07:15:43;;;;;;;8.00;5.35;;;;;;;;;;6234097;23;20218;-89
2021/07/16 07:18:48;;;;;;;8.20;4.95;;;;;;;;;;6233619;23;20498;-90
2021/07/16 07:21:55;;;;;;;8.95;5.32;;;;;;;;;;6233035;22;20214;-91
2021/07/16 07:25:00;;;;;;;9.20;5.10;;;;;;;;;;6230743;23;20240;-90
2021/07/16 07:28:06;;;;;;;8.10;5.20;;;;;;;;;;6232827;23;20171;-91
2021/07/16 07:31:11;;;;;;;8.95;4.78;;;;;;;;;;6232383;23;20230;-90
2021/07/16 07:34:16;;;;;;;8.98;5.90;;;;;;;;;;6231463;23;20171;-90
2021/07/16 07:37:25;;;;;;;8.90;5.60;;;;;;;;;;6233155;22;20223;-90
2021/07/16 22:02:11;;;;;;;5.63;3.40;;;;;;;;;;6222679;22;20424;-88
2021/07/16 22:05:18;;;;;;;10.48;4.05;;;;;;;;;;6248291;23;20172;-87
2021/07/16 22:08:24;;;;;;;8.80;3.58;;;;;;;;;;6229114;23;20175;-86
2021/07/16 22:11:29;;;;;;;5.18;2.47;;;;;;;;;;6228603;23;20170;-86
2021/07/16 22:14:35;;;;;;;13.13;3.90;;;;;;;;;;6231493;23;20163;-86
2021/07/16 22:17:44;;;;;;;9.98;4.13;;;;;;;;;;6230957;22;20187;-86
2021/07/16 22:20:49;;;;;;;8.93;3.20;;;;;;;;;;6247504;23;20167;-88
2021/07/16 22:23:57;;;;;;;5.38;2.97;;;;;;;;;;6229190;23;20351;-87
2021/07/16 22:27:05;;;;;;;6.75;3.30;;;;;;;;;;6229216;23;20175;-88
2021/07/16 22:30:13;;;;;;;4.60;2.75;;;;;;;;;;6230444;23;20175;-87
2021/07/16 22:33:22;;;;;;;4.75;3.15;;;;;;;;;;6230369;23;20179;-88
2021/07/16 22:36:27;;;;;;;4.15;2.60;;;;;;;;;;6231025;23;20258;-88
2021/07/16 22:39:32;;;;;;;8.45;3.08;;;;;;;;;;6230619;23;20171;-87
2021/07/16 22:42:39;;;;;;;8.10;3.50;;;;;;;;;;6227641;23;20248;-87
2021/07/16 22:45:45;;;;;;;5.40;3.58;;;;;;;;;;6245506;23;20228;-87
2021/07/16 22:48:56;;;;;;;8.68;3.10;;;;;;;;;;6228716;23;20195;-86
2021/07/16 22:52:01;;;;;;;7.50;3.60;;;;;;;;;;6246390;23;20170;-86
2021/07/16 22:55:07;;;;;;;4.93;3.13;;;;;;;;;;6228514;23;20166;-87
2021/07/16 22:58:12;;;;;;;7.78;3.15;;;;;;;;;;6228166;23;20175;-87
2021/07/16 23:01:17;;;;;;;7.65;4.00;;;;;;;;;;6227313;23;20317;-84
2021/07/16 23:04:24;;;;;;;10.82;5.03;;;;;;;;;;6227905;23;20171;-86
2021/07/16 23:07:29;;;;;;;8.35;3.47;;;;;;;;;;6228708;23;20268;-87
2021/07/16 23:10:34;;;;;;;8.13;3.63;;;;;;;;;;6228382;23;20218;-86
2021/07/16 23:13:40;;;;;;;9.07;4.18;;;;;;;;;;6228891;23;20179;-87
2021/07/16 23:16:44;;;;;;;6.07;3.80;;;;;;;;;;6227345;23;20593;-86
2021/07/16 23:19:51;;;;;;;6.85;3.72;;;;;;;;;;6230514;23;20170;-85
2021/07/16 23:22:59;;;;;;;7.30;3.63;;;;;;;;;;6228119;23;20194;-87
2021/07/16 23:26:04;;;;;;;5.88;2.80;;;;;;;;;;6228876;23;20163;-87
2021/07/16 23:29:09;;;;;;;4.45;3.00;;;;;;;;;;6227396;23;20175;-87
2021/07/16 23:32:14;;;;;;;9.00;3.40;;;;;;;;;;6227597;23;20167;-84
2021/07/16 23:35:21;;;;;;;4.82;2.95;;;;;;;;;;6228767;23;20203;-86
2021/07/16 23:38:26;;;;;;;9.95;3.35;;;;;;;;;;6227430;22;20614;-86
2021/07/16 23:41:31;;;;;;;4.60;2.90;;;;;;;;;;6228755;23;20183;-87
2021/07/16 23:44:36;;;;;;;5.47;2.58;;;;;;;;;;6227474;23;20179;-86
2021/07/16 23:47:41;;;;;;;5.65;3.00;;;;;;;;;;6227788;23;20228;-86
2021/07/16 23:50:48;;;;;;;8.35;2.88;;;;;;;;;;6228628;23;20240;-87
2021/07/16 23:53:53;;;;;;;5.70;2.60;;;;;;;;;;6229139;23;20147;-86
2021/07/16 23:56:58;;;;;;;5.90;2.70;;;;;;;;;;6228588;23;20175;-87
